Time;durP1;ratioP1;P1;durP2;ratioP2;P2;SDS_P1;SDS_P2;PMS_P1;PMS_P2;Temp;Humidity;BMP_temperature;BMP_pressure;BME280_temperature;BME280_humidity;BME280_pressure;Samples;Min_cycle;Max_cycle;Signal;HPM_P1;HPM_P2
2023/10/07 00:00:16;;;;;;;;;;;;;;;;;;4994902;28;89504;-67
2023/10/07 00:02:42;;;;;;;;;;;;;;;;;;4984367;28;90454;-67
2023/10/07 00:05:12;;;;;;;;;;;;;;;;;;4990886;28;89240;-64
2023/10/07 00:07:38;;;;;;;;;;;;;;;;;;4990662;28;90509;-64
2023/10/07 00:10:05;;;;;;;;;;;;;;;;;;4992631;28;89397;-64
2023/10/07 00:12:31;;;;;;;;;;;;;;;;;;4989373;28;90647;-64
2023/10/07 00:14:57;;;;;;;;;;;;;;;;;;4991116;28;89535;-63
2023/10/07 00:17:22;;;;;;;;;;;;;;;;;;4989106;28;90600;-63
2023/10/07 00:19:47;;;;;;;;;;;;;;;;;;4991735;28;89968;-64
2023/10/07 00:22:19;;;;;;;;;;;;;;;;;;4992493;28;89700;-63
2023/10/07 00:24:48;;;;;;;;;;;;;;;;;;4992511;28;89467;-63
2023/10/07 00:27:26;;;;;;;;;;;;;;;;;;4987334;28;92333;-63
2023/10/07 00:29:54;;;;;;;;;;;;;;;;;;5008046;28;92231;-63
2023/10/07 00:32:26;;;;;;;;;;;;;;;;;;4995261;28;89068;-65
2023/10/07 00:34:51;;;;;;;;;;;;;;;;;;4989559;28;90928;-63
2023/10/07 00:37:18;;;;;;;;;;;;;;;;;;4990254;28;89894;-66
2023/10/07 00:39:43;;;;;;;;;;;;;;;;;;4989218;28;90494;-63
2023/10/07 00:42:10;;;;;;;;;;;;;;;;;;4994102;28;89835;-63
2023/10/07 00:44:35;;;;;;;;;;;;;;;;;;4990553;28;91586;-63
2023/10/07 00:49:50;;;;;;;;;;;;;;;;;;4991749;28;89223;-64
2023/10/07 00:52:29;;;;;;;;;;;;;;;;;;4987016;28;89678;-70
2023/10/07 00:55:08;;;;;;;;;;;;;;;;;;4989388;28;90322;-67
2023/10/07 01:00:00;;;;;;;;;;;;;;;;;;4988132;28;90754;-66
2023/10/07 01:02:30;;;;;;;;;;;;;;;;;;4993849;28;89766;-64
2023/10/07 01:05:00;;;;;;;;;;;;;;;;;;4989267;28;90260;-68
2023/10/07 01:07:27;;;;;;;;;;;;;;;;;;4988799;28;90471;-67
2023/10/07 01:10:12;;;;;;;;;;;;;;;;;;4993015;28;89440;-68
2023/10/07 01:12:38;;;;;;;;;;;;;;;;;;4984096;28;90088;-67
2023/10/07 01:15:06;;;;;;;;;;;;;;;;;;4991624;28;90653;-67
2023/10/07 01:17:31;;;;;;;;;;;;;;;;;;4989229;28;90331;-68
2023/10/07 01:19:57;;;;;;;;;;;;;;;;;;4987768;28;89551;-67
2023/10/07 01:22:35;;;;;;;;;;;;;;;;;;4992201;28;90684;-65
2023/10/07 01:25:06;;;;;;;;;;;;;;;;;;4996847;28;90093;-63
2023/10/07 01:27:35;;;;;;;;;;;;;;;;;;4991094;28;90652;-64
2023/10/07 01:30:08;;;;;;;;;;;;;;;;;;5007855;28;90461;-64
2023/10/07 01:32:33;;;;;;;;;;;;;;;;;;4989677;28;91210;-63
2023/10/07 01:35:11;;;;;;;;;;;;;;;;;;4969773;28;92390;-65
2023/10/07 01:37:50;;;;;;;;;;;;;;;;;;4984049;28;90217;-63
2023/10/07 01:40:16;;;;;;;;;;;;;;;;;;4989325;28;89365;-68
2023/10/07 01:42:42;;;;;;;;;;;;;;;;;;4989395;28;90605;-64
2023/10/07 01:45:20;;;;;;;;;;;;;;;;;;4990878;28;89720;-65
2023/10/07 01:47:47;;;;;;;;;;;;;;;;;;4989170;28;90069;-64
2023/10/07 01:50:13;;;;;;;;;;;;;;;;;;4988076;28;89619;-64
2023/10/07 01:52:38;;;;;;;;;;;;;;;;;;4985888;28;89329;-64
2023/10/07 01:55:08;;;;;;;;;;;;;;;;;;4985829;28;90846;-64
2023/10/07 01:57:34;;;;;;;;;;;;;;;;;;4986864;28;90196;-64
2023/10/07 02:00:00;;;;;;;;;;;;;;;;;;4986332;28;89121;-64
2023/10/07 02:02:26;;;;;;;;;;;;;;;;;;4989514;28;90612;-64
2023/10/07 02:04:57;;;;;;;;;;;;;;;;;;4987302;28;90365;-63
2023/10/07 02:07:22;;;;;;;;;;;;;;;;;;4978479;28;89642;-62
2023/10/07 02:09:48;;;;;;;;;;;;;;;;;;4992233;28;90983;-63
2023/10/07 02:12:18;;;;;;;;;;;;;;;;;;4987008;28;89528;-66
2023/10/07 02:14:43;;;;;;;;;;;;;;;;;;4991327;28;90721;-64
2023/10/07 02:17:08;;;;;;;;;;;;;;;;;;4986900;28;89287;-63
2023/10/07 02:19:33;;;;;;;;;;;;;;;;;;4986047;28;90637;-63
2023/10/07 02:21:59;;;;;;;;;;;;;;;;;;4988859;28;89511;-62
2023/10/07 02:24:31;;;;;;;;;;;;;;;;;;4988205;28;89971;-65
2023/10/07 02:27:00;;;;;;;;;;;;;;;;;;4994979;28;89989;-66
2023/10/07 02:29:29;;;;;;;;;;;;;;;;;;4991182;28;89575;-66
2023/10/07 02:32:06;;;;;;;;;;;;;;;;;;4991722;28;89989;-67
2023/10/07 02:34:33;;;;;;;;;;;;;;;;;;4989057;28;90049;-65
2023/10/07 02:37:12;;;;;;;;;;;;;;;;;;4989257;28;89634;-64
2023/10/07 02:39:45;;;;;;;;;;;;;;;;;;4986773;28;90792;-65
2023/10/07 02:42:12;;;;;;;;;;;;;;;;;;4990221;28;90999;-67
2023/10/07 02:44:38;;;;;;;;;;;;;;;;;;4987562;28;89544;-67
2023/10/07 02:47:11;;;;;;;;;;;;;;;;;;4986649;28;90167;-64
2023/10/07 02:49:37;;;;;;;;;;;;;;;;;;4984542;28;90709;-65
2023/10/07 02:52:02;;;;;;;;;;;;;;;;;;4988003;28;89423;-66
2023/10/07 02:54:33;;;;;;;;;;;;;;;;;;4988801;28;89081;-64
2023/10/07 02:57:08;;;;;;;;;;;;;;;;;;4988845;28;90573;-65
2023/10/07 02:59:36;;;;;;;;;;;;;;;;;;4987450;28;90436;-64
2023/10/07 03:04:59;;;;;;;;;;;;;;;;;;4988383;28;89663;-68
2023/10/07 03:07:25;;;;;;;;;;;;;;;;;;4991024;28;89998;-67
2023/10/07 03:10:16;;;;;;;;;;;;;;;;;;4990121;28;90697;-67
2023/10/07 03:12:47;;;;;;;;;;;;;;;;;;4988536;28;89630;-64
2023/10/07 03:15:21;;;;;;;;;;;;;;;;;;4990060;28;89155;-65
2023/10/07 03:17:46;;;;;;;;;;;;;;;;;;4994949;28;89426;-66
2023/10/07 03:28:17;;;;;;;;;;;;;;;;;;4989792;28;89501;-63
2023/10/07 03:30:52;;;;;;;;;;;;;;;;;;4988316;28;89811;-65
2023/10/07 03:33:32;;;;;;;;;;;;;;;;;;4987777;28;90271;-65
2023/10/07 03:38:26;;;;;;;;;;;;;;;;;;4991791;28;89567;-66
2023/10/07 03:40:54;;;;;;;;;;;;;;;;;;4988022;28;90964;-66
2023/10/07 03:43:20;;;;;;;;;;;;;;;;;;4982943;28;89631;-64
2023/10/07 03:45:45;;;;;;;;;;;;;;;;;;4989880;28;89377;-65
2023/10/07 03:48:23;;;;;;;;;;;;;;;;;;4991287;28;90021;-64
2023/10/07 03:51:08;;;;;;;;;;;;;;;;;;4991784;28;90768;-66
2023/10/07 03:53:44;;;;;;;;;;;;;;;;;;4987920;28;90399;-67
2023/10/07 03:56:09;;;;;;;;;;;;;;;;;;4987009;28;89720;-65
2023/10/07 03:58:36;;;;;;;;;;;;;;;;;;4990039;28;89550;-64
2023/10/07 04:01:11;;;;;;;;;;;;;;;;;;4992560;28;89786;-64
2023/10/07 04:03:37;;;;;;;;;;;;;;;;;;4987928;28;90965;-65
2023/10/07 04:06:04;;;;;;;;;;;;;;;;;;4989373;28;89876;-65
2023/10/07 04:08:29;;;;;;;;;;;;;;;;;;4988345;28;90148;-63
2023/10/07 04:10:55;;;;;;;;;;;;;;;;;;4989357;28;89543;-63
2023/10/07 04:13:24;;;;;;;;;;;;;;;;;;4988331;28;89320;-63
2023/10/07 04:15:53;;;;;;;;;;;;;;;;;;4991648;28;89535;-68
2023/10/07 04:18:22;;;;;;;;;;;;;;;;;;4988582;28;92651;-68
2023/10/07 04:20:57;;;;;;;;;;;;;;;;;;4989274;28;89760;-65
2023/10/07 04:23:25;;;;;;;;;;;;;;;;;;4995800;28;89085;-66
2023/10/07 04:25:51;;;;;;;;;;;;;;;;;;4993474;28;90598;-64
2023/10/07 04:28:17;;;;;;;;;;;;;;;;;;4989955;28;89792;-67
2023/10/07 04:30:47;;;;;;;;;;;;;;;;;;4994639;28;90804;-64
2023/10/07 04:33:13;;;;;;;;;;;;;;;;;;4990329;28;91464;-66
2023/10/07 04:35:39;;;;;;;;;;;;;;;;;;4992006;28;89386;-65
2023/10/07 04:41:30;;;;;;;;;;;;;;;;;;4988386;28;89810;-67
2023/10/07 04:46:23;;;;;;;;;;;;;;;;;;4994901;28;89540;-67
2023/10/07 04:48:54;;;;;;;;;;;;;;;;;;4995387;28;89788;-68
2023/10/07 04:51:33;;;;;;;;;;;;;;;;;;4990083;28;89990;-67
2023/10/07 04:53:59;;;;;;;;;;;;;;;;;;4987277;28;90706;-64
2023/10/07 04:56:31;;;;;;;;;;;;;;;;;;4981669;28;89529;-64
2023/10/07 04:59:00;;;;;;;;;;;;;;;;;;4984542;28;90880;-65
2023/10/07 05:01:31;;;;;;;;;;;;;;;;;;4987941;28;92947;-63
2023/10/07 05:04:09;;;;;;;;;;;;;;;;;;4984957;28;90397;-63
2023/10/07 05:06:35;;;;;;;;;;;;;;;;;;4987304;28;90729;-65
2023/10/07 05:09:10;;;;;;;;;;;;;;;;;;4991580;28;89419;-63
2023/10/07 05:11:43;;;;;;;;;;;;;;;;;;4981520;28;89413;-63
2023/10/07 05:14:10;;;;;;;;;;;;;;;;;;4987352;28;89796;-63
2023/10/07 05:16:36;;;;;;;;;;;;;;;;;;4986447;28;89370;-64
2023/10/07 05:19:02;;;;;;;;;;;;;;;;;;4995856;28;90739;-63
2023/10/07 05:21:28;;;;;;;;;;;;;;;;;;4986455;28;90485;-64
2023/10/07 05:23:55;;;;;;;;;;;;;;;;;;4986312;28;90198;-64
2023/10/07 05:26:21;;;;;;;;;;;;;;;;;;4984526;28;92092;-68
2023/10/07 05:28:47;;;;;;;;;;;;;;;;;;4990062;28;90363;-67
2023/10/07 05:31:17;;;;;;;;;;;;;;;;;;4988006;28;90050;-63
2023/10/07 05:33:43;;;;;;;;;;;;;;;;;;4984773;28;91895;-68
2023/10/07 05:36:17;;;;;;;;;;;;;;;;;;4987872;28;90518;-66
2023/10/07 05:38:47;;;;;;;;;;;;;;;;;;4987900;28;90708;-65
2023/10/07 05:41:14;;;;;;;;;;;;;;;;;;4987500;28;89776;-65
2023/10/07 05:43:43;;;;;;;;;;;;;;;;;;4986401;28;89584;-65
2023/10/07 05:46:10;;;;;;;;;;;;;;;;;;4987212;28;89504;-64
2023/10/07 05:48:38;;;;;;;;;;;;;;;;;;4990418;28;89460;-63
2023/10/07 05:51:05;;;;;;;;;;;;;;;;;;4993304;28;90056;-64
2023/10/07 05:53:36;;;;;;;;;;;;;;;;;;4986216;28;89927;-64
2023/10/07 05:56:05;;;;;;;;;;;;;;;;;;4985083;28;89343;-63
2023/10/07 05:58:32;;;;;;;;;;;;;;;;;;4986600;28;89805;-66
2023/10/07 06:00:58;;;;;;;;;;;;;;;;;;4987824;28;92419;-65
2023/10/07 06:03:25;;;;;;;;;;;;;;;;;;4984406;28;89714;-63
2023/10/07 06:05:50;;;;;;;;;;;;;;;;;;4985419;28;90711;-64
2023/10/07 06:08:15;;;;;;;;;;;;;;;;;;4986909;28;92084;-65
2023/10/07 06:10:44;;;;;;;;;;;;;;;;;;4985766;28;89293;-66
2023/10/07 06:13:09;;;;;;;;;;;;;;;;;;4990352;28;90590;-65
2023/10/07 06:15:37;;;;;;;;;;;;;;;;;;4985854;28;89657;-67
2023/10/07 06:18:04;;;;;;;;;;;;;;;;;;4985390;28;91713;-66
2023/10/07 06:20:37;;;;;;;;;;;;;;;;;;4987856;28;90366;-64
2023/10/07 06:23:13;;;;;;;;;;;;;;;;;;4986490;28;89564;-65
2023/10/07 06:25:41;;;;;;;;;;;;;;;;;;4982747;28;89940;-65
2023/10/07 06:28:07;;;;;;;;;;;;;;;;;;4992370;28;90268;-66
2023/10/07 06:30:32;;;;;;;;;;;;;;;;;;4985450;28;91193;-66
2023/10/07 06:33:03;;;;;;;;;;;;;;;;;;4987655;28;92773;-66
2023/10/07 06:35:28;;;;;;;;;;;;;;;;;;4991961;28;90510;-66
2023/10/07 06:37:57;;;;;;;;;;;;;;;;;;4989351;28;89567;-69
2023/10/07 06:40:32;;;;;;;;;;;;;;;;;;4983912;28;91111;-65
2023/10/07 06:42:58;;;;;;;;;;;;;;;;;;4987195;28;89481;-66
2023/10/07 06:45:35;;;;;;;;;;;;;;;;;;4985848;28;90070;-65
2023/10/07 06:48:02;;;;;;;;;;;;;;;;;;4983017;28;90200;-66
2023/10/07 06:50:28;;;;;;;;;;;;;;;;;;4984351;28;89456;-65
2023/10/07 06:52:55;;;;;;;;;;;;;;;;;;4983021;28;92793;-66
2023/10/07 06:55:20;;;;;;;;;;;;;;;;;;4988482;28;89639;-65
2023/10/07 06:57:47;;;;;;;;;;;;;;;;;;4988972;28;89600;-65
2023/10/07 07:00:23;;;;;;;;;;;;;;;;;;4982182;28;89589;-65
2023/10/07 07:02:54;;;;;;;;;;;;;;;;;;4984793;28;89951;-65
2023/10/07 07:05:22;;;;;;;;;;;;;;;;;;4983684;28;90774;-65
2023/10/07 07:07:50;;;;;;;;;;;;;;;;;;4983435;28;90449;-65
2023/10/07 07:10:16;;;;;;;;;;;;;;;;;;4986777;28;89909;-64
2023/10/07 07:12:41;;;;;;;;;;;;;;;;;;4984211;28;91046;-66
2023/10/07 07:15:26;;;;;;;;;;;;;;;;;;4983749;28;89564;-67
2023/10/07 07:18:02;;;;;;;;;;;;;;;;;;4989703;28;89134;-67
2023/10/07 07:20:33;;;;;;;;;;;;;;;;;;4986660;28;89555;-65
2023/10/07 07:23:10;;;;;;;;;;;;;;;;;;4988449;28;89663;-65
2023/10/07 07:25:39;;;;;;;;;;;;;;;;;;4988480;28;90757;-68
2023/10/07 07:28:06;;;;;;;;;;;;;;;;;;4991383;28;89356;-68
2023/10/07 07:30:31;;;;;;;;;;;;;;;;;;4986970;28;89747;-66
2023/10/07 07:33:06;;;;;;;;;;;;;;;;;;4986276;28;92884;-66
2023/10/07 07:35:40;;;;;;;;;;;;;;;;;;4995932;28;91506;-66
2023/10/07 07:40:52;;;;;;;;;;;;;;;;;;4994820;28;89549;-66
2023/10/07 07:43:23;;;;;;;;;;;;;;;;;;4987131;28;91083;-66
2023/10/07 07:45:56;;;;;;;;;;;;;;;;;;4994529;28;91794;-65
2023/10/07 07:48:21;;;;;;;;;;;;;;;;;;4990254;28;89615;-66
2023/10/07 07:50:48;;;;;;;;;;;;;;;;;;4993047;28;89587;-69
2023/10/07 07:53:14;;;;;;;;;;;;;;;;;;4987443;28;90735;-69
2023/10/07 07:55:43;;;;;;;;;;;;;;;;;;4986637;28;89808;-69
2023/10/07 07:58:09;;;;;;;;;;;;;;;;;;4985132;28;90368;-69
2023/10/07 08:00:40;;;;;;;;;;;;;;;;;;4990712;28;89889;-67
2023/10/07 08:03:06;;;;;;;;;;;;;;;;;;4992817;28;89472;-70
2023/10/07 08:05:34;;;;;;;;;;;;;;;;;;4988729;28;91147;-69
2023/10/07 08:08:01;;;;;;;;;;;;;;;;;;4988950;28;89933;-70
2023/10/07 08:10:28;;;;;;;;;;;;;;;;;;4988242;28;89348;-69
2023/10/07 08:12:58;;;;;;;;;;;;;;;;;;4991940;28;90320;-69
2023/10/07 08:15:23;;;;;;;;;;;;;;;;;;4988881;28;89741;-70
2023/10/07 08:17:52;;;;;;;;;;;;;;;;;;4983306;28;89187;-70
2023/10/07 08:20:26;;;;;;;;;;;;;;;;;;4991788;28;90670;-68
2023/10/07 08:22:52;;;;;;;;;;;;;;;;;;4987554;28;90329;-70
2023/10/07 08:28:18;;;;;;;;;;;;;;;;;;4991783;28;89637;-70
2023/10/07 08:30:46;;;;;;;;;;;;;;;;;;4984947;28;89635;-68
2023/10/07 08:33:12;;;;;;;;;;;;;;;;;;4985601;28;90727;-67
2023/10/07 08:35:43;;;;;;;;;;;;;;;;;;4989521;28;89730;-69
2023/10/07 08:38:20;;;;;;;;;;;;;;;;;;4986968;28;89081;-67
2023/10/07 08:41:07;;;;;;;;;;;;;;;;;;4987903;28;89607;-67
2023/10/07 08:43:38;;;;;;;;;;;;;;;;;;4987479;28;90696;-68
2023/10/07 08:46:11;;;;;;;;;;;;;;;;;;4987563;28;89556;-67
2023/10/07 08:48:42;;;;;;;;;;;;;;;;;;4989241;28;91184;-68
2023/10/07 08:51:25;;;;;;;;;;;;;;;;;;4986901;28;89907;-69
2023/10/07 08:54:04;;;;;;;;;;;;;;;;;;4985595;28;90053;-67
2023/10/07 08:56:30;;;;;;;;;;;;;;;;;;4989568;28;89269;-70
2023/10/07 08:58:57;;;;;;;;;;;;;;;;;;4992004;28;90530;-69
2023/10/07 09:01:24;;;;;;;;;;;;;;;;;;4989088;28;92147;-68
2023/10/07 09:03:51;;;;;;;;;;;;;;;;;;4986220;28;89221;-66
2023/10/07 09:06:19;;;;;;;;;;;;;;;;;;4986137;28;89718;-69
2023/10/07 09:08:45;;;;;;;;;;;;;;;;;;4987663;28;90705;-67
2023/10/07 09:11:13;;;;;;;;;;;;;;;;;;4991235;28;90128;-70
2023/10/07 09:13:41;;;;;;;;;;;;;;;;;;4984814;28;90132;-69
2023/10/07 09:16:10;;;;;;;;;;;;;;;;;;4984836;28;89828;-70
2023/10/07 09:18:40;;;;;;;;;;;;;;;;;;4983437;28;89672;-64
2023/10/07 09:21:09;;;;;;;;;;;;;;;;;;4984894;28;91622;-69
2023/10/07 09:23:43;;;;;;;;;;;;;;;;;;4984836;28;90209;-65
2023/10/07 09:26:43;;;;;;;;;;;;;;;;;;4985871;28;89094;-68
2023/10/07 09:31:39;;;;;;;;;;;;;;;;;;4985751;28;90198;-66
2023/10/07 09:34:10;;;;;;;;;;;;;;;;;;4987883;28;90264;-66
2023/10/07 09:36:40;;;;;;;;;;;;;;;;;;4984069;28;90842;-71
2023/10/07 09:42:03;;;;;;;;;;;;;;;;;;4980939;28;89533;-71
2023/10/07 09:44:29;;;;;;;;;;;;;;;;;;4982118;28;89541;-66
2023/10/07 09:46:55;;;;;;;;;;;;;;;;;;4983147;28;89600;-66
2023/10/07 09:49:23;;;;;;;;;;;;;;;;;;4984948;28;89613;-65
2023/10/07 09:51:56;;;;;;;;;;;;;;;;;;4984813;28;90162;-66
2023/10/07 09:54:36;;;;;;;;;;;;;;;;;;4986998;28;89347;-71
2023/10/07 09:57:14;;;;;;;;;;;;;;;;;;4981811;28;91343;-71
2023/10/07 09:59:40;;;;;;;;;;;;;;;;;;4983015;28;89642;-69
2023/10/07 10:02:32;;;;;;;;;;;;;;;;;;4985289;28;90721;-71
2023/10/07 10:05:05;;;;;;;;;;;;;;;;;;4984376;28;90308;-69
2023/10/07 10:07:32;;;;;;;;;;;;;;;;;;4982721;28;89958;-70
2023/10/07 10:10:14;;;;;;;;;;;;;;;;;;4983205;28;92400;-70
2023/10/07 10:13:06;;;;;;;;;;;;;;;;;;4980298;28;90804;-70
2023/10/07 10:18:35;;;;;;;;;;;;;;;;;;4986624;28;90503;-68
2023/10/07 10:21:04;;;;;;;;;;;;;;;;;;4984765;28;89458;-66
2023/10/07 10:23:32;;;;;;;;;;;;;;;;;;4984516;28;91982;-68
2023/10/07 10:26:02;;;;;;;;;;;;;;;;;;4984653;28;90203;-67
2023/10/07 10:28:28;;;;;;;;;;;;;;;;;;4985276;28;90394;-70
2023/10/07 10:30:56;;;;;;;;;;;;;;;;;;4985095;28;91044;-65
2023/10/07 10:33:23;;;;;;;;;;;;;;;;;;4984908;28;89990;-68
2023/10/07 10:35:51;;;;;;;;;;;;;;;;;;4987030;28;89514;-71
2023/10/07 10:38:16;;;;;;;;;;;;;;;;;;4985354;28;89729;-70
2023/10/07 10:40:45;;;;;;;;;;;;;;;;;;4990055;28;89211;-68
2023/10/07 10:43:21;;;;;;;;;;;;;;;;;;4983886;28;90684;-65
2023/10/07 10:45:46;;;;;;;;;;;;;;;;;;4985868;27;89421;-71
2023/10/07 10:48:14;;;;;;;;;;;;;;;;;;4985570;28;89435;-69
2023/10/07 10:50:40;;;;;;;;;;;;;;;;;;4984035;28;92914;-69
2023/10/07 10:53:06;;;;;;;;;;;;;;;;;;4985658;28;90253;-70
2023/10/07 10:55:36;;;;;;;;;;;;;;;;;;4990707;28;89398;-66
2023/10/07 10:58:01;;;;;;;;;;;;;;;;;;4988819;28;90540;-71
2023/10/07 11:00:28;;;;;;;;;;;;;;;;;;4987117;28;91983;-68
2023/10/07 11:02:54;;;;;;;;;;;;;;;;;;4988264;28;90617;-72
2023/10/07 11:05:22;;;;;;;;;;;;;;;;;;4984936;28;90258;-72
2023/10/07 11:07:50;;;;;;;;;;;;;;;;;;4986510;28;90161;-71
2023/10/07 11:10:20;;;;;;;;;;;;;;;;;;4986674;28;89843;-69
2023/10/07 11:12:52;;;;;;;;;;;;;;;;;;4983326;28;90115;-67
2023/10/07 11:15:24;;;;;;;;;;;;;;;;;;4984786;28;90555;-67
2023/10/07 11:18:11;;;;;;;;;;;;;;;;;;4986801;28;90538;-72
2023/10/07 11:20:39;;;;;;;;;;;;;;;;;;4984388;28;90634;-73
2023/10/07 11:23:06;;;;;;;;;;;;;;;;;;4987962;28;89734;-70
2023/10/07 11:25:34;;;;;;;;;;;;;;;;;;4990337;28;90660;-73
2023/10/07 11:27:59;;;;;;;;;;;;;;;;;;4986645;28;90910;-70
2023/10/07 11:30:24;;;;;;;;;;;;;;;;;;4988011;28;89864;-73
2023/10/07 11:32:49;;;;;;;;;;;;;;;;;;4986914;28;90532;-69
2023/10/07 11:35:27;;;;;;;;;;;;;;;;;;4987117;28;90744;-68
2023/10/07 11:37:57;;;;;;;;;;;;;;;;;;4987920;28;90680;-69
2023/10/07 11:40:23;;;;;;;;;;;;;;;;;;4986315;28;89732;-70
2023/10/07 11:42:49;;;;;;;;;;;;;;;;;;4986692;28;89130;-67
2023/10/07 11:45:16;;;;;;;;;;;;;;;;;;4988941;28;89719;-67
2023/10/07 11:47:41;;;;;;;;;;;;;;;;;;4990142;28;89422;-68
2023/10/07 11:50:07;;;;;;;;;;;;;;;;;;4987343;28;89511;-73
2023/10/07 11:52:33;;;;;;;;;;;;;;;;;;4987911;28;89196;-73
2023/10/07 11:54:59;;;;;;;;;;;;;;;;;;4988560;28;89329;-68
2023/10/07 11:57:25;;;;;;;;;;;;;;;;;;4988312;28;90723;-72
2023/10/07 11:59:51;;;;;;;;;;;;;;;;;;4987278;28;89688;-72
2023/10/07 12:02:16;;;;;;;;;;;;;;;;;;4987203;28;89170;-71
2023/10/07 12:04:48;;;;;;;;;;;;;;;;;;4984684;28;89428;-72
2023/10/07 12:07:16;;;;;;;;;;;;;;;;;;4968085;28;92233;-72
2023/10/07 12:09:43;;;;;;;;;;;;;;;;;;4985549;28;90256;-73
2023/10/07 12:12:11;;;;;;;;;;;;;;;;;;4987792;28;89623;-73
2023/10/07 12:14:36;;;;;;;;;;;;;;;;;;4986097;28;89125;-73
2023/10/07 12:17:04;;;;;;;;;;;;;;;;;;4989269;28;90498;-72
2023/10/07 12:19:30;;;;;;;;;;;;;;;;;;4986485;28;90230;-68
2023/10/07 12:21:56;;;;;;;;;;;;;;;;;;4987761;28;90243;-71
2023/10/07 12:24:21;;;;;;;;;;;;;;;;;;4986193;28;89596;-73
2023/10/07 12:26:47;;;;;;;;;;;;;;;;;;4986144;28;89471;-73
2023/10/07 12:29:13;;;;;;;;;;;;;;;;;;4989623;28;90125;-72
2023/10/07 12:31:39;;;;;;;;;;;;;;;;;;4985798;28;90154;-72
2023/10/07 12:34:05;;;;;;;;;;;;;;;;;;4987124;28;90478;-73
2023/10/07 12:36:30;;;;;;;;;;;;;;;;;;4986612;28;89547;-68
2023/10/07 12:38:56;;;;;;;;;;;;;;;;;;4985472;28;89369;-69
2023/10/07 12:41:21;;;;;;;;;;;;;;;;;;4986186;28;90233;-69
2023/10/07 12:43:47;;;;;;;;;;;;;;;;;;4985678;28;89788;-71
2023/10/07 12:46:14;;;;;;;;;;;;;;;;;;4986556;28;90171;-71
2023/10/07 12:48:40;;;;;;;;;;;;;;;;;;4984347;28;89979;-70
2023/10/07 12:51:06;;;;;;;;;;;;;;;;;;4989424;28;90326;-71
2023/10/07 12:53:34;;;;;;;;;;;;;;;;;;4984222;28;90017;-70
2023/10/07 12:56:20;;;;;;;;;;;;;;;;;;4984966;28;89620;-72
2023/10/07 12:58:48;;;;;;;;;;;;;;;;;;4984630;28;89500;-71
2023/10/07 13:01:13;;;;;;;;;;;;;;;;;;4985920;28;89542;-69
2023/10/07 13:03:45;;;;;;;;;;;;;;;;;;4985813;28;90045;-72
2023/10/07 13:06:10;;;;;;;;;;;;;;;;;;4985597;28;90338;-72
2023/10/07 13:08:38;;;;;;;;;;;;;;;;;;4987015;28;90169;-73
2023/10/07 13:11:04;;;;;;;;;;;;;;;;;;4986191;28;90698;-72
2023/10/07 13:13:34;;;;;;;;;;;;;;;;;;4988855;28;89465;-70
2023/10/07 13:16:08;;;;;;;;;;;;;;;;;;4986739;28;89486;-67
2023/10/07 13:18:35;;;;;;;;;;;;;;;;;;5001426;28;90741;-67
2023/10/07 13:21:00;;;;;;;;;;;;;;;;;;4986323;28;89732;-67
2023/10/07 13:23:26;;;;;;;;;;;;;;;;;;4986752;28;90679;-69
2023/10/07 13:25:51;;;;;;;;;;;;;;;;;;4986732;28;89822;-73
2023/10/07 13:28:16;;;;;;;;;;;;;;;;;;4988429;28;89974;-72
2023/10/07 13:30:42;;;;;;;;;;;;;;;;;;4986212;28;90179;-72
2023/10/07 13:33:07;;;;;;;;;;;;;;;;;;4986661;28;90528;-73
2023/10/07 13:35:33;;;;;;;;;;;;;;;;;;4989655;28;89019;-69
2023/10/07 13:37:58;;;;;;;;;;;;;;;;;;4985742;28;90654;-69
2023/10/07 13:40:23;;;;;;;;;;;;;;;;;;4985324;28;89154;-66
2023/10/07 13:42:53;;;;;;;;;;;;;;;;;;4985803;28;89514;-69
2023/10/07 13:45:18;;;;;;;;;;;;;;;;;;4985516;28;89993;-65
2023/10/07 13:47:44;;;;;;;;;;;;;;;;;;4983709;28;89506;-65
2023/10/07 13:50:16;;;;;;;;;;;;;;;;;;4990336;28;90939;-65
2023/10/07 13:52:51;;;;;;;;;;;;;;;;;;4985282;28;89592;-65
2023/10/07 13:55:33;;;;;;;;;;;;;;;;;;4986684;28;89711;-66
2023/10/07 13:57:59;;;;;;;;;;;;;;;;;;4988399;28;89026;-69
2023/10/07 14:02:59;;;;;;;;;;;;;;;;;;4985188;28;89500;-69
2023/10/07 14:05:24;;;;;;;;;;;;;;;;;;4986138;28;89139;-69
2023/10/07 14:07:54;;;;;;;;;;;;;;;;;;4985204;28;89099;-71
2023/10/07 14:10:22;;;;;;;;;;;;;;;;;;4988552;28;89487;-68
2023/10/07 14:12:53;;;;;;;;;;;;;;;;;;4979921;28;89205;-72
2023/10/07 14:15:21;;;;;;;;;;;;;;;;;;4985764;28;90273;-68
2023/10/07 14:17:47;;;;;;;;;;;;;;;;;;4987523;28;89551;-71
2023/10/07 14:20:13;;;;;;;;;;;;;;;;;;4987980;28;89813;-67
2023/10/07 14:22:40;;;;;;;;;;;;;;;;;;4984160;28;90511;-71
2023/10/07 14:25:06;;;;;;;;;;;;;;;;;;4985211;28;89318;-72
2023/10/07 14:27:31;;;;;;;;;;;;;;;;;;4982761;28;89710;-71
2023/10/07 14:29:56;;;;;;;;;;;;;;;;;;4983598;28;89600;-72
2023/10/07 14:32:22;;;;;;;;;;;;;;;;;;4982094;28;89287;-72
2023/10/07 14:34:47;;;;;;;;;;;;;;;;;;4981544;28;89525;-71
2023/10/07 14:37:13;;;;;;;;;;;;;;;;;;4985771;28;89783;-71
2023/10/07 14:39:38;;;;;;;;;;;;;;;;;;4987951;28;89730;-70
2023/10/07 14:42:07;;;;;;;;;;;;;;;;;;4984329;28;90596;-72
2023/10/07 14:44:32;;;;;;;;;;;;;;;;;;4983775;28;90390;-71
2023/10/07 14:46:58;;;;;;;;;;;;;;;;;;4982768;28;89043;-72
2023/10/07 14:49:23;;;;;;;;;;;;;;;;;;4981730;28;89721;-72
2023/10/07 14:51:50;;;;;;;;;;;;;;;;;;4983243;28;89440;-70
2023/10/07 14:54:17;;;;;;;;;;;;;;;;;;4983583;28;89422;-72
2023/10/07 14:56:43;;;;;;;;;;;;;;;;;;4981040;28;89624;-71
2023/10/07 14:59:09;;;;;;;;;;;;;;;;;;4984245;28;89759;-68
2023/10/07 15:01:34;;;;;;;;;;;;;;;;;;4990634;28;89575;-69
2023/10/07 15:03:59;;;;;;;;;;;;;;;;;;4984400;28;89253;-69
2023/10/07 15:06:24;;;;;;;;;;;;;;;;;;4983645;28;90088;-67
2023/10/07 15:08:50;;;;;;;;;;;;;;;;;;4983579;28;89613;-68
2023/10/07 15:11:17;;;;;;;;;;;;;;;;;;4984170;28;90238;-67
2023/10/07 15:13:43;;;;;;;;;;;;;;;;;;4984150;28;89800;-67
2023/10/07 15:16:11;;;;;;;;;;;;;;;;;;4985941;28;90123;-68
2023/10/07 15:18:39;;;;;;;;;;;;;;;;;;4984266;28;89538;-66
2023/10/07 15:21:07;;;;;;;;;;;;;;;;;;4979084;28;89564;-67
2023/10/07 15:23:33;;;;;;;;;;;;;;;;;;4987120;28;89141;-69
2023/10/07 15:25:58;;;;;;;;;;;;;;;;;;4984495;28;89005;-66
2023/10/07 15:28:23;;;;;;;;;;;;;;;;;;4984431;28;89685;-66
2023/10/07 15:30:49;;;;;;;;;;;;;;;;;;4984141;28;89609;-70
2023/10/07 15:33:16;;;;;;;;;;;;;;;;;;4982326;28;89651;-72
2023/10/07 15:35:44;;;;;;;;;;;;;;;;;;4986365;28;89743;-71
2023/10/07 15:38:12;;;;;;;;;;;;;;;;;;4983428;28;89741;-70
2023/10/07 15:40:41;;;;;;;;;;;;;;;;;;4986424;28;88980;-71
2023/10/07 15:43:11;;;;;;;;;;;;;;;;;;4986929;28;90736;-71
2023/10/07 15:45:54;;;;;;;;;;;;;;;;;;4989676;28;90181;-68
2023/10/07 15:48:25;;;;;;;;;;;;;;;;;;4979781;28;89666;-66
2023/10/07 15:50:50;;;;;;;;;;;;;;;;;;4981026;28;90378;-72
2023/10/07 15:53:16;;;;;;;;;;;;;;;;;;4983050;28;89514;-71
2023/10/07 15:55:41;;;;;;;;;;;;;;;;;;4985617;28;89320;-66
2023/10/07 15:58:06;;;;;;;;;;;;;;;;;;4981965;28;89848;-67
2023/10/07 16:00:33;;;;;;;;;;;;;;;;;;4985141;28;90878;-66
2023/10/07 16:02:59;;;;;;;;;;;;;;;;;;4987638;28;92214;-69
2023/10/07 16:05:24;;;;;;;;;;;;;;;;;;4986142;28;89666;-67
2023/10/07 16:07:49;;;;;;;;;;;;;;;;;;4986233;28;91843;-66
2023/10/07 16:10:14;;;;;;;;;;;;;;;;;;4983648;28;89174;-67
2023/10/07 16:12:41;;;;;;;;;;;;;;;;;;4981655;28;89649;-65
2023/10/07 16:15:08;;;;;;;;;;;;;;;;;;4985961;28;89695;-66
2023/10/07 16:17:34;;;;;;;;;;;;;;;;;;4983536;28;89832;-65
2023/10/07 16:20:00;;;;;;;;;;;;;;;;;;4985423;28;89477;-65
2023/10/07 16:22:26;;;;;;;;;;;;;;;;;;4986814;28;90716;-70
2023/10/07 16:24:51;;;;;;;;;;;;;;;;;;4986796;28;90139;-72
2023/10/07 16:27:16;;;;;;;;;;;;;;;;;;4989022;28;89089;-71
2023/10/07 16:29:41;;;;;;;;;;;;;;;;;;4984765;28;89296;-70
2023/10/07 16:32:06;;;;;;;;;;;;;;;;;;4983563;28;89481;-71
2023/10/07 16:34:32;;;;;;;;;;;;;;;;;;4982463;28;89508;-67
2023/10/07 16:36:57;;;;;;;;;;;;;;;;;;4985744;28;89009;-69
2023/10/07 16:39:23;;;;;;;;;;;;;;;;;;4986740;28;89947;-70
2023/10/07 16:41:48;;;;;;;;;;;;;;;;;;4986436;28;89628;-69
2023/10/07 16:44:14;;;;;;;;;;;;;;;;;;4985026;28;90846;-69
2023/10/07 16:46:42;;;;;;;;;;;;;;;;;;4985964;28;89798;-69
2023/10/07 16:49:11;;;;;;;;;;;;;;;;;;4989218;28;89559;-66
2023/10/07 16:51:37;;;;;;;;;;;;;;;;;;4985586;28;89510;-70
2023/10/07 16:54:04;;;;;;;;;;;;;;;;;;4985087;28;90457;-69
2023/10/07 16:56:29;;;;;;;;;;;;;;;;;;4984984;28;90606;-69
2023/10/07 16:58:54;;;;;;;;;;;;;;;;;;4988719;28;89613;-66
2023/10/07 17:01:20;;;;;;;;;;;;;;;;;;4983129;28;89592;-69
2023/10/07 17:03:45;;;;;;;;;;;;;;;;;;4983010;28;90246;-67
2023/10/07 17:06:10;;;;;;;;;;;;;;;;;;4985855;28;89636;-66
2023/10/07 17:08:36;;;;;;;;;;;;;;;;;;4986061;28;91286;-66
2023/10/07 17:11:01;;;;;;;;;;;;;;;;;;4990113;28;89630;-71
2023/10/07 17:13:27;;;;;;;;;;;;;;;;;;4984917;28;90681;-65
2023/10/07 17:15:53;;;;;;;;;;;;;;;;;;4986095;28;90247;-66
2023/10/07 17:18:20;;;;;;;;;;;;;;;;;;4990313;28;90212;-65
2023/10/07 17:20:46;;;;;;;;;;;;;;;;;;4987068;28;90617;-67
2023/10/07 17:23:14;;;;;;;;;;;;;;;;;;4985269;28;89152;-65
2023/10/07 17:25:40;;;;;;;;;;;;;;;;;;4985961;28;89444;-66
2023/10/07 17:28:07;;;;;;;;;;;;;;;;;;4986183;28;89685;-72
2023/10/07 17:30:33;;;;;;;;;;;;;;;;;;4988220;28;89536;-69
2023/10/07 17:33:02;;;;;;;;;;;;;;;;;;4991035;28;90667;-64
2023/10/07 17:35:30;;;;;;;;;;;;;;;;;;4982965;28;90014;-69